« Back
NWS Peachtree City, Ga » Text Product » AHN Terminal Aerodrome Forecast


Printer-friendly Version
Current Version              Previous Versions:   1  2  3  4  5  6  7  8  9  

Terminal Aerodrome Forecast

869
FTAK31 PAJN 290700 AAA
TAFAHN
TAF AMD
PAHN 290756Z 2908/3006 00000KT 5SM -RA BR SCT005 BKN010 OVC060
      TEMPO 2909/2912 2SM -RA BR BKN004 OVC050
     FM291200 VRB03KT P6SM -RA OVC050
     FM291500 VRB04KT P6SM -RA SCT020 OVC040
     FM291800 12005KT P6SM -RA SCT015 BKN025 OVC050
     FM292100 12008KT P6SM -RA OVC050
      AMD LTD TO CLD VIS AND WIND=



USA.gov is the U.S. government's official web portal to all federal, state and local government web resources and services.